Xiaogan, China
Current Conditions -  °F | °C
As of 3:00 PM on Monday 22 Dec 2014 (Local Time) from ZHHH Reporting Station
Clear Clear  
Wind Chill: 50°   Ceiling: Unl
Heat Index: 50°   Visibility: 4mi
Dew Point: 19°   Wind: 4mph
Humidity: 30%   Direction: 140°SE
Pressure: 30.3"   Gusts: NA
Location:  30.92°N, 113.9°E
Report Text: ZHHH 220700Z 14002MPS 080V240 6000 NSC 10/M07 Q1026 NOSIG
Loading
Personal Weather Stations






























Interactive Weather Map New forecast layout! Learn more

10-Day Weather Forecast

Advertisements
Track Severe Weather on mobile